Arviat Airport
CYEK : now visible

Airfield :











YOU CAN JOIN US ON...

 
LOGIN :

Register | Disclaimer

   EN    FR    IT 

 









Legend :    VFR   Marginal VFR   IFR   Intensive IFR   Very Intensive IFR
Visi :
Ceiling :
>= 8 km
>= 3000ft
5 to 8 km
1000 to 3000 ft
1500m to 5 km
500 to 1000 ft
800 to 1500m
200 to 500 ft
< 800m
< 200 ft
Symbols :   Thunderstorms  Fog  Heavy snow  Heavy precipitations  Wind > 20 kt






- Airport Elevation : 32 ft
- IATA code : YEK


CYEK - Arviat

CURRENT METAR :
  • 221241Z AUTO 11015KT 3SM BR FEW007 OVC016 M09/M09 A2941 RMK ICG PRESFR SLP961

EXPIRED METARs :
  • 221227Z AUTO 10010KT 6SM -SN SCT007 OVC016 M09/M09 A2942 RMK ICG SLP966
  • 221214Z AUTO 10011KT 5SM BR SCT007 BKN012 OVC018 M09/M09 A2943 RMK ICG SLP968
  • 221204Z AUTO 11012KT 6SM BR SCT007 BKN012 OVC018 M09/M09 A2943 RMK ICG SLP970
  • 221157Z AUTO 11011G16KT 5SM BR SCT007 BKN012 OVC018 M09/M09 A2944 RMK ICG SLP972
  • 221147Z AUTO 11014KT 5SM -SN FEW007 OVC018 M09/M09 A2943 RMK ICG SLP970
  • 221100Z AUTO 12012KT 9SM -SN OVC020 M09/M10 A2945 RMK ICG SLP976
  • 221048Z AUTO 13013KT 9SM -SN FEW009 BKN020 OVC025 M09/M10 A2946 RMK ICG SLP978
  • 221007Z AUTO 13011KT 9SM -SN OVC037 M09/M10 A2947 RMK SLP982

TAF AMD TAF CYEK
Valid from the 22 at 12:00 until the 23 at 00:00 UTC


221203Z 2212/2224 11010KT P6SM -SN OVC030
TEMPO 2212/2224 3SM -SN BR BKN007 OVC020
BECMG 2216/2218 07015KT RMK FCST BASED ON AUTO OBS. NXT FCST BY 221800Z



MET'MAP, your aeronautical weather chart ! - Copyright ORBIFLY December 2007 - Disclaimer

ORBIFLY MET'MAP TEAM :

Programming & Development : Alexandra Zaïnal
Concept & Development : Baudouin d'Aumeries
Co-Development & Prog : Marc-Olivier Méhu
Technical & hardware support : Manuel Goepfert

Contact : metmap@orbifly.com




SOURCES & CREDITS :

   NOAA       Earth
Advisory